Station: EBLB - 12/07/2020 18:55Z (il y a 13 minutes)
EBLB 121855Z AUTO 05005KT 9999 NCD 15/07 Q1027 BLU
Vent du 050º - 5 kt
Visibilité > 10 km
Pas de nuages détectés
Température: +15ºC - Point de rosée: +07ºC - QNH: 1027 hPa
Code couleur militaire: BLU (conditions VMC)